sensor_id;sensor_type;location;lat;lon;timestamp;pressure;altitude;pressure_sealevel;temperature;humidity
71559;BME280;59382;43.852;25.952;2023-03-01T00:01:52;102315.41;;;7.40;69.86
71559;BME280;59382;43.852;25.952;2023-03-01T00:04:18;102337.81;;;7.48;69.93
71559;BME280;59382;43.852;25.952;2023-03-01T00:06:44;102336.69;;;7.51;69.88
71559;BME280;59382;43.852;25.952;2023-03-01T00:09:14;102342.72;;;7.53;69.95
71559;BME280;59382;43.852;25.952;2023-03-01T00:11:39;102346.13;;;7.55;69.72
71559;BME280;59382;43.852;25.952;2023-03-01T00:14:05;102331.97;;;7.53;69.71
71559;BME280;59382;43.852;25.952;2023-03-01T00:16:37;102331.16;;;7.52;69.96
71559;BME280;59382;43.852;25.952;2023-03-01T00:19:16;102312.03;;;7.38;69.78
71559;BME280;59382;43.852;25.952;2023-03-01T00:21:42;102332.28;;;7.50;70.06
71559;BME280;59382;43.852;25.952;2023-03-01T00:24:08;102288.22;;;7.25;69.92
71559;BME280;59382;43.852;25.952;2023-03-01T00:26:34;102330.31;;;7.52;69.83
71559;BME280;59382;43.852;25.952;2023-03-01T00:29:00;102308.34;;;7.39;69.93
71559;BME280;59382;43.852;25.952;2023-03-01T00:31:31;102315.81;;;7.45;70.17
71559;BME280;59382;43.852;25.952;2023-03-01T00:34:01;102324.38;;;7.48;69.70
71559;BME280;59382;43.852;25.952;2023-03-01T00:36:30;102314.78;;;7.46;70.12
71559;BME280;59382;43.852;25.952;2023-03-01T00:38:56;102296.13;;;7.27;70.04
71559;BME280;59382;43.852;25.952;2023-03-01T00:41:22;102314.13;;;7.44;69.88
71559;BME280;59382;43.852;25.952;2023-03-01T00:43:49;102316.47;;;7.47;69.75
71559;BME280;59382;43.852;25.952;2023-03-01T00:46:20;102303.28;;;7.36;69.66
71559;BME280;59382;43.852;25.952;2023-03-01T00:48:46;102311.44;;;7.44;70.18
71559;BME280;59382;43.852;25.952;2023-03-01T00:51:20;102306.38;;;7.41;70.15
71559;BME280;59382;43.852;25.952;2023-03-01T00:53:47;102304.66;;;7.40;70.15
71559;BME280;59382;43.852;25.952;2023-03-01T00:56:15;102299.59;;;7.37;70.36
71559;BME280;59382;43.852;25.952;2023-03-01T00:58:41;102283.72;;;7.26;70.01
71559;BME280;59382;43.852;25.952;2023-03-01T01:01:16;102285.53;;;7.25;70.52
71559;BME280;59382;43.852;25.952;2023-03-01T01:03:58;102277.94;;;7.21;70.33
71559;BME280;59382;43.852;25.952;2023-03-01T01:06:27;102279.09;;;7.18;70.38
71559;BME280;59382;43.852;25.952;2023-03-01T01:08:53;102291.78;;;7.26;70.50
71559;BME280;59382;43.852;25.952;2023-03-01T01:11:23;102297.97;;;7.26;70.40
71559;BME280;59382;43.852;25.952;2023-03-01T01:13:49;102290.91;;;7.25;70.84
71559;BME280;59382;43.852;25.952;2023-03-01T01:16:16;102270.34;;;7.16;70.75
71559;BME280;59382;43.852;25.952;2023-03-01T01:18:42;102278.50;;;7.24;70.75
71559;BME280;59382;43.852;25.952;2023-03-01T01:21:13;102280.88;;;7.27;70.51
71559;BME280;59382;43.852;25.952;2023-03-01T01:23:41;102270.09;;;7.10;70.53
71559;BME280;59382;43.852;25.952;2023-03-01T01:26:10;102263.75;;;7.11;70.97
71559;BME280;59382;43.852;25.952;2023-03-01T01:28:36;102269.50;;;7.16;70.58
71559;BME280;59382;43.852;25.952;2023-03-01T01:31:02;102249.22;;;7.04;70.83
71559;BME280;59382;43.852;25.952;2023-03-01T01:33:28;102254.28;;;7.07;70.93
71559;BME280;59382;43.852;25.952;2023-03-01T01:35:54;102237.41;;;6.97;70.93
71559;BME280;59382;43.852;25.952;2023-03-01T01:38:19;102250.69;;;6.98;71.04
71559;BME280;59382;43.852;25.952;2023-03-01T01:40:45;102255.09;;;6.99;71.37
71559;BME280;59382;43.852;25.952;2023-03-01T01:43:32;102246.47;;;6.96;71.60
71559;BME280;59382;43.852;25.952;2023-03-01T01:46:10;102224.69;;;6.81;71.19
71559;BME280;59382;43.852;25.952;2023-03-01T01:48:43;102223.84;;;6.81;71.87
71559;BME280;59382;43.852;25.952;2023-03-01T01:51:13;102230.19;;;6.80;71.44
71559;BME280;59382;43.852;25.952;2023-03-01T01:53:42;102234.13;;;6.85;71.76
71559;BME280;59382;43.852;25.952;2023-03-01T01:56:10;102230.72;;;6.83;71.87
71559;BME280;59382;43.852;25.952;2023-03-01T01:58:36;102221.16;;;6.81;71.70
71559;BME280;59382;43.852;25.952;2023-03-01T02:01:04;102237.66;;;6.86;71.56
71559;BME280;59382;43.852;25.952;2023-03-01T02:03:31;102221.44;;;6.78;71.95
71559;BME280;59382;43.852;25.952;2023-03-01T02:08:38;102231.97;;;6.89;71.72
71559;BME280;59382;43.852;25.952;2023-03-01T02:11:04;102221.09;;;6.90;71.68
71559;BME280;59382;43.852;25.952;2023-03-01T02:13:32;102222.22;;;6.88;72.13
71559;BME280;59382;43.852;25.952;2023-03-01T02:15:59;102223.63;;;6.92;71.99
71559;BME280;59382;43.852;25.952;2023-03-01T02:18:25;102211.50;;;6.88;71.49
71559;BME280;59382;43.852;25.952;2023-03-01T02:24:03;102209.50;;;6.90;71.66
71559;BME280;59382;43.852;25.952;2023-03-01T02:26:52;102214.88;;;6.90;71.68
71559;BME280;59382;43.852;25.952;2023-03-01T02:29:21;102217.16;;;6.85;71.93
71559;BME280;59382;43.852;25.952;2023-03-01T02:31:47;102212.50;;;6.87;71.86
71559;BME280;59382;43.852;25.952;2023-03-01T02:34:22;102188.56;;;6.76;71.93
71559;BME280;59382;43.852;25.952;2023-03-01T02:36:56;102208.28;;;6.84;72.24
71559;BME280;59382;43.852;25.952;2023-03-01T02:39:30;102178.88;;;6.65;72.28
71559;BME280;59382;43.852;25.952;2023-03-01T02:41:57;102203.41;;;6.70;72.48
71559;BME280;59382;43.852;25.952;2023-03-01T02:44:25;102204.28;;;6.71;71.79
71559;BME280;59382;43.852;25.952;2023-03-01T02:46:53;102223.84;;;6.81;72.40
71559;BME280;59382;43.852;25.952;2023-03-01T02:49:25;102211.56;;;6.78;72.33
71559;BME280;59382;43.852;25.952;2023-03-01T02:57:13;102220.84;;;6.84;72.37
71559;BME280;59382;43.852;25.952;2023-03-01T02:59:39;102225.22;;;6.85;72.12
71559;BME280;59382;43.852;25.952;2023-03-01T03:02:26;102227.06;;;6.84;71.94
71559;BME280;59382;43.852;25.952;2023-03-01T03:05:22;102227.91;;;6.85;71.95
71559;BME280;59382;43.852;25.952;2023-03-01T03:07:49;102231.28;;;6.87;71.89
71559;BME280;59382;43.852;25.952;2023-03-01T03:10:20;102209.88;;;6.77;71.86
71559;BME280;59382;43.852;25.952;2023-03-01T03:12:54;102215.47;;;6.84;72.07
71559;BME280;59382;43.852;25.952;2023-03-01T03:15:21;102202.38;;;6.81;71.91
71559;BME280;59382;43.852;25.952;2023-03-01T03:17:49;102216.19;;;6.86;71.91
71559;BME280;59382;43.852;25.952;2023-03-01T03:20:17;102194.38;;;6.71;72.06
71559;BME280;59382;43.852;25.952;2023-03-01T03:22:47;102216.84;;;6.88;71.63
71559;BME280;59382;43.852;25.952;2023-03-01T03:25:13;102217.16;;;6.85;72.02
71559;BME280;59382;43.852;25.952;2023-03-01T03:27:41;102225.31;;;6.93;71.93
71559;BME280;59382;43.852;25.952;2023-03-01T03:30:11;102231.53;;;6.93;71.67
71559;BME280;59382;43.852;25.952;2023-03-01T03:32:39;102219.38;;;6.89;71.68
71559;BME280;59382;43.852;25.952;2023-03-01T03:35:06;102223.63;;;6.92;71.98
71559;BME280;59382;43.852;25.952;2023-03-01T03:37:41;102219.94;;;6.93;71.83
71559;BME280;59382;43.852;25.952;2023-03-01T03:40:26;102225.88;;;6.96;71.94
71559;BME280;59382;43.852;25.952;2023-03-01T03:42:52;102214.97;;;6.98;71.86
71559;BME280;59382;43.852;25.952;2023-03-01T03:45:17;102199.63;;;6.90;71.74
71559;BME280;59382;43.852;25.952;2023-03-01T03:47:43;102210.72;;;6.95;72.13
71559;BME280;59382;43.852;25.952;2023-03-01T03:50:11;102212.28;;;6.98;71.75
71559;BME280;59382;43.852;25.952;2023-03-01T03:52:37;102225.56;;;6.99;71.89
71559;BME280;59382;43.852;25.952;2023-03-01T03:55:03;102179.13;;;6.72;72.03
71559;BME280;59382;43.852;25.952;2023-03-01T03:57:29;102215.94;;;6.97;71.73
71559;BME280;59382;43.852;25.952;2023-03-01T03:59:54;102184.81;;;6.86;71.80
71559;BME280;59382;43.852;25.952;2023-03-01T04:02:20;102211.13;;;7.00;71.91
71559;BME280;59382;43.852;25.952;2023-03-01T04:04:50;102181.09;;;6.70;71.43
71559;BME280;59382;43.852;25.952;2023-03-01T04:07:16;102224.72;;;6.99;71.78
71559;BME280;59382;43.852;25.952;2023-03-01T04:09:43;102215.94;;;6.97;71.75
71559;BME280;59382;43.852;25.952;2023-03-01T04:12:09;102211.88;;;6.93;71.49
71559;BME280;59382;43.852;25.952;2023-03-01T04:14:35;102198.06;;;6.88;71.66
71559;BME280;59382;43.852;25.952;2023-03-01T04:17:00;102224.72;;;6.99;71.69
71559;BME280;59382;43.852;25.952;2023-03-01T04:19:26;102228.06;;;7.01;71.99
71559;BME280;59382;43.852;25.952;2023-03-01T04:21:52;102223.69;;;7.00;72.01
71559;BME280;59382;43.852;25.952;2023-03-01T04:24:18;102224.09;;;7.05;71.65
71559;BME280;59382;43.852;25.952;2023-03-01T04:26:44;102227.44;;;7.07;71.56
71559;BME280;59382;43.852;25.952;2023-03-01T04:29:09;102226.06;;;7.03;71.91
71559;BME280;59382;43.852;25.952;2023-03-01T04:31:35;102229.47;;;7.05;71.73
71559;BME280;59382;43.852;25.952;2023-03-01T04:34:01;102224.63;;;7.08;71.66
71559;BME280;59382;43.852;25.952;2023-03-01T04:36:28;102237.59;;;7.13;71.89
71559;BME280;59382;43.852;25.952;2023-03-01T04:38:55;102231.91;;;7.16;71.73
71559;BME280;59382;43.852;25.952;2023-03-01T04:41:23;102236.97;;;7.19;71.62
71559;BME280;59382;43.852;25.952;2023-03-01T04:43:49;102229.06;;;7.17;71.37
71559;BME280;59382;43.852;25.952;2023-03-01T04:46:17;102224.00;;;7.14;71.16
71559;BME280;59382;43.852;25.952;2023-03-01T04:48:43;102217.72;;;7.06;71.30
71559;BME280;59382;43.852;25.952;2023-03-01T04:51:09;102208.81;;;7.05;71.21
71559;BME280;59382;43.852;25.952;2023-03-01T04:53:39;102209.97;;;7.03;71.58
71559;BME280;59382;43.852;25.952;2023-03-01T04:56:06;102188.34;;;6.87;71.20
71559;BME280;59382;43.852;25.952;2023-03-01T04:58:32;102222.69;;;7.01;71.59
71559;BME280;59382;43.852;25.952;2023-03-01T05:00:58;102233.13;;;7.04;71.78
71559;BME280;59382;43.852;25.952;2023-03-01T05:03:23;102214.56;;;6.93;71.52
71559;BME280;59382;43.852;25.952;2023-03-01T05:05:50;102232.31;;;7.03;71.82
71559;BME280;59382;43.852;25.952;2023-03-01T05:08:16;102242.19;;;7.03;71.61
71559;BME280;59382;43.852;25.952;2023-03-01T05:10:51;102231.75;;;7.00;71.62
71559;BME280;59382;43.852;25.952;2023-03-01T05:13:18;102218.25;;;6.92;71.66
71559;BME280;59382;43.852;25.952;2023-03-01T05:15:49;102233.44;;;7.01;71.70
71559;BME280;59382;43.852;25.952;2023-03-01T05:18:18;102214.56;;;6.93;71.66
71559;BME280;59382;43.852;25.952;2023-03-01T05:20:44;102235.97;;;7.02;71.90
71559;BME280;59382;43.852;25.952;2023-03-01T05:23:10;102240.50;;;7.02;71.81
71559;BME280;59382;43.852;25.952;2023-03-01T05:25:37;102225.00;;;6.96;71.54
71559;BME280;59382;43.852;25.952;2023-03-01T05:28:07;102233.44;;;7.01;71.93
71559;BME280;59382;43.852;25.952;2023-03-01T05:30:35;102222.31;;;6.96;71.97
71559;BME280;59382;43.852;25.952;2023-03-01T05:33:00;102233.63;;;6.99;71.91
71559;BME280;59382;43.852;25.952;2023-03-01T05:35:26;102220.41;;;6.88;71.71
71559;BME280;59382;43.852;25.952;2023-03-01T05:37:52;102210.13;;;6.84;71.85
71559;BME280;59382;43.852;25.952;2023-03-01T05:40:21;102200.59;;;6.72;71.98
71559;BME280;59382;43.852;25.952;2023-03-01T05:42:53;102222.22;;;6.88;71.92
71559;BME280;59382;43.852;25.952;2023-03-01T05:45:23;102220.53;;;6.87;71.67
71559;BME280;59382;43.852;25.952;2023-03-01T05:47:50;102216.84;;;6.88;71.96
71559;BME280;59382;43.852;25.952;2023-03-01T05:50:27;102207.03;;;6.79;71.69
71559;BME280;59382;43.852;25.952;2023-03-01T05:52:59;102211.78;;;6.85;72.15
71559;BME280;59382;43.852;25.952;2023-03-01T05:55:26;102234.75;;;6.97;71.82
71559;BME280;59382;43.852;25.952;2023-03-01T05:57:52;102232.06;;;6.97;71.94
71559;BME280;59382;43.852;25.952;2023-03-01T06:00:19;102238.28;;;6.97;72.02
71559;BME280;59382;43.852;25.952;2023-03-01T06:02:48;102238.44;;;6.96;71.71
71559;BME280;59382;43.852;25.952;2023-03-01T06:05:17;102239.44;;;6.95;71.96
71559;BME280;59382;43.852;25.952;2023-03-01T06:07:43;102232.66;;;6.91;72.06
71559;BME280;59382;43.852;25.952;2023-03-01T06:10:10;102231.69;;;6.92;71.81
71559;BME280;59382;43.852;25.952;2023-03-01T06:12:38;102238.88;;;6.91;71.94
71559;BME280;59382;43.852;25.952;2023-03-01T06:15:05;102229.75;;;6.84;71.92
71559;BME280;59382;43.852;25.952;2023-03-01T06:17:33;102241.09;;;6.96;72.22
71559;BME280;59382;43.852;25.952;2023-03-01T06:22:34;102221.41;;;6.87;72.10
71559;BME280;59382;43.852;25.952;2023-03-01T06:25:00;102221.91;;;6.91;72.13
71559;BME280;59382;43.852;25.952;2023-03-01T06:27:25;102244.72;;;7.04;72.05
71559;BME280;59382;43.852;25.952;2023-03-01T06:29:51;102238.50;;;7.04;71.92
71559;BME280;59382;43.852;25.952;2023-03-01T06:32:17;102235.81;;;7.04;71.95
71559;BME280;59382;43.852;25.952;2023-03-01T06:34:43;102237.22;;;7.08;72.05
71559;BME280;59382;43.852;25.952;2023-03-01T06:37:09;102243.88;;;7.04;71.83
71559;BME280;59382;43.852;25.952;2023-03-01T06:39:35;102228.69;;;6.95;72.12
71559;BME280;59382;43.852;25.952;2023-03-01T06:42:00;102246.53;;;7.04;72.04
71559;BME280;59382;43.852;25.952;2023-03-01T06:44:26;102231.75;;;7.00;71.99
71559;BME280;59382;43.852;25.952;2023-03-01T06:46:52;102227.69;;;6.96;72.08
71559;BME280;59382;43.852;25.952;2023-03-01T06:49:18;102239.34;;;7.04;72.05
71559;BME280;59382;43.852;25.952;2023-03-01T06:51:46;102218.78;;;6.95;71.92
71559;BME280;59382;43.852;25.952;2023-03-01T06:54:11;102231.22;;;6.96;72.14
71559;BME280;59382;43.852;25.952;2023-03-01T06:56:37;102234.84;;;7.05;72.13
71559;BME280;59382;43.852;25.952;2023-03-01T06:59:03;102222.88;;;6.99;71.98
71559;BME280;59382;43.852;25.952;2023-03-01T07:01:29;102207.53;;;6.92;71.98
71559;BME280;59382;43.852;25.952;2023-03-01T07:03:55;102237.88;;;7.10;71.99
71559;BME280;59382;43.852;25.952;2023-03-01T07:06:21;102249.47;;;7.10;72.10
71559;BME280;59382;43.852;25.952;2023-03-01T07:08:47;102248.31;;;7.13;72.31
71559;BME280;59382;43.852;25.952;2023-03-01T07:11:12;102238.34;;;7.05;72.21
71559;BME280;59382;43.852;25.952;2023-03-01T07:13:38;102218.19;;;7.01;72.01
71559;BME280;59382;43.852;25.952;2023-03-01T07:16:04;102237.59;;;7.13;72.27
71559;BME280;59382;43.852;25.952;2023-03-01T07:18:30;102238.69;;;7.20;71.99
71559;BME280;59382;43.852;25.952;2023-03-01T07:20:55;102240.38;;;7.21;72.17
71559;BME280;59382;43.852;25.952;2023-03-01T07:23:21;102238.69;;;7.20;71.87
71559;BME280;59382;43.852;25.952;2023-03-01T07:25:53;102247.41;;;7.22;71.78
71559;BME280;59382;43.852;25.952;2023-03-01T07:28:20;102248.81;;;7.26;71.90
71559;BME280;59382;43.852;25.952;2023-03-01T07:30:47;102240.91;;;7.24;72.26
71559;BME280;59382;43.852;25.952;2023-03-01T07:33:13;102237.38;;;7.24;71.67
71559;BME280;59382;43.852;25.952;2023-03-01T07:35:38;102230.19;;;7.24;71.79
71559;BME280;59382;43.852;25.952;2023-03-01T07:38:04;102240.31;;;7.30;71.44
71559;BME280;59382;43.852;25.952;2023-03-01T07:40:29;102250.19;;;7.30;71.75
71559;BME280;59382;43.852;25.952;2023-03-01T07:42:58;102223.19;;;7.14;71.86
71559;BME280;59382;43.852;25.952;2023-03-01T07:45:27;102233.63;;;7.17;71.67
71559;BME280;59382;43.852;25.952;2023-03-01T07:47:54;102239.19;;;7.23;71.82
71559;BME280;59382;43.852;25.952;2023-03-01T07:50:20;102249.13;;;7.23;71.91
71559;BME280;59382;43.852;25.952;2023-03-01T07:52:47;102261.94;;;7.29;71.89
71559;BME280;59382;43.852;25.952;2023-03-01T07:55:15;102254.84;;;7.28;71.60
71559;BME280;59382;43.852;25.952;2023-03-01T07:57:41;102234.69;;;7.24;71.96
71559;BME280;59382;43.852;25.952;2023-03-01T08:00:09;102209.69;;;7.06;71.52
71559;BME280;59382;43.852;25.952;2023-03-01T08:02:35;102253.28;;;7.35;71.70
71559;BME280;59382;43.852;25.952;2023-03-01T08:05:04;102251.25;;;7.37;71.47
71559;BME280;59382;43.852;25.952;2023-03-01T08:07:30;102247.28;;;7.41;71.49
71559;BME280;59382;43.852;25.952;2023-03-01T08:09:56;102238.84;;;7.36;71.38
71559;BME280;59382;43.852;25.952;2023-03-01T08:12:22;102237.47;;;7.32;71.53
71559;BME280;59382;43.852;25.952;2023-03-01T08:14:49;102239.13;;;7.33;71.67
71559;BME280;59382;43.852;25.952;2023-03-01T08:17:15;102234.94;;;7.30;71.58
71559;BME280;59382;43.852;25.952;2023-03-01T08:19:40;102248.97;;;7.42;71.46
71559;BME280;59382;43.852;25.952;2023-03-01T08:22:06;102253.16;;;7.44;71.36
71559;BME280;59382;43.852;25.952;2023-03-01T08:24:31;102236.22;;;7.44;71.38
71559;BME280;59382;43.852;25.952;2023-03-01T08:26:57;102222.72;;;7.36;71.34
71559;BME280;59382;43.852;25.952;2023-03-01T08:29:23;102244.97;;;7.46;71.42
71559;BME280;59382;43.852;25.952;2023-03-01T08:31:50;102249.41;;;7.55;71.31
71559;BME280;59382;43.852;25.952;2023-03-01T08:34:17;102253.63;;;7.57;71.43
71559;BME280;59382;43.852;25.952;2023-03-01T08:36:45;102233.28;;;7.55;70.93
71559;BME280;59382;43.852;25.952;2023-03-01T08:39:13;102245.09;;;7.62;71.26
71559;BME280;59382;43.852;25.952;2023-03-01T08:41:39;102240.88;;;7.59;70.98
71559;BME280;59382;43.852;25.952;2023-03-01T08:44:05;102218.09;;;7.46;71.20
71559;BME280;59382;43.852;25.952;2023-03-01T08:46:36;102227.59;;;7.58;71.06
71559;BME280;59382;43.852;25.952;2023-03-01T08:49:11;102233.72;;;7.68;70.94
71559;BME280;59382;43.852;25.952;2023-03-01T08:51:37;102216.13;;;7.48;71.03
71559;BME280;59382;43.852;25.952;2023-03-01T08:54:10;102235.75;;;7.66;70.57
71559;BME280;59382;43.852;25.952;2023-03-01T08:56:37;102228.97;;;7.62;70.91
71559;BME280;59382;43.852;25.952;2023-03-01T08:59:03;102240.50;;;7.72;70.78
71559;BME280;59382;43.852;25.952;2023-03-01T09:01:28;102244.56;;;7.76;70.63
71559;BME280;59382;43.852;25.952;2023-03-01T09:03:54;102245.56;;;7.75;70.68
71559;BME280;59382;43.852;25.952;2023-03-01T09:06:20;102221.63;;;7.64;70.69
71559;BME280;59382;43.852;25.952;2023-03-01T09:08:48;102238.13;;;7.69;70.51
71559;BME280;59382;43.852;25.952;2023-03-01T09:11:18;102235.44;;;7.69;70.70
71559;BME280;59382;43.852;25.952;2023-03-01T09:13:46;102209.81;;;7.57;70.73
71559;BME280;59382;43.852;25.952;2023-03-01T09:16:14;102219.78;;;7.64;70.88
71559;BME280;59382;43.852;25.952;2023-03-01T09:18:42;102208.34;;;7.62;70.90
71559;BME280;59382;43.852;25.952;2023-03-01T09:21:10;102210.25;;;7.70;70.76
71559;BME280;59382;43.852;25.952;2023-03-01T09:23:40;102196.59;;;7.63;70.55
71559;BME280;59382;43.852;25.952;2023-03-01T09:26:17;102223.38;;;7.73;70.48
71559;BME280;59382;43.852;25.952;2023-03-01T09:28:45;102217.38;;;7.79;70.57
71559;BME280;59382;43.852;25.952;2023-03-01T09:31:11;102213.00;;;7.78;70.80
71559;BME280;59382;43.852;25.952;2023-03-01T09:33:38;102193.44;;;7.68;70.53
71559;BME280;59382;43.852;25.952;2023-03-01T09:36:07;102203.69;;;7.72;70.87
71559;BME280;59382;43.852;25.952;2023-03-01T09:38:33;102194.44;;;7.67;70.59
71559;BME280;59382;43.852;25.952;2023-03-01T09:41:02;102205.09;;;7.76;70.99
71559;BME280;59382;43.852;25.952;2023-03-01T09:43:32;102207.31;;;7.81;70.41
71559;BME280;59382;43.852;25.952;2023-03-01T09:46:06;102190.44;;;7.71;70.68
71559;BME280;59382;43.852;25.952;2023-03-01T09:48:41;102198.88;;;7.76;70.88
71559;BME280;59382;43.852;25.952;2023-03-01T09:51:13;102205.91;;;7.77;70.25
71559;BME280;59382;43.852;25.952;2023-03-01T09:53:42;102203.78;;;7.80;71.01
71559;BME280;59382;43.852;25.952;2023-03-01T09:56:22;102205.09;;;7.76;70.76
71559;BME280;59382;43.852;25.952;2023-03-01T09:58:54;102213.34;;;7.83;70.57
71559;BME280;59382;43.852;25.952;2023-03-01T10:09:37;102192.25;;;7.88;70.81
71559;BME280;59382;43.852;25.952;2023-03-01T10:12:16;102198.03;;;8.01;70.75
71559;BME280;59382;43.852;25.952;2023-03-01T10:14:51;102203.41;;;8.01;70.41
71559;BME280;59382;43.852;25.952;2023-03-01T10:17:37;102203.72;;;7.98;70.33
71559;BME280;59382;43.852;25.952;2023-03-01T10:22:38;102182.53;;;7.95;70.44
71559;BME280;59382;43.852;25.952;2023-03-01T10:25:04;102200.78;;;8.09;70.51
71559;BME280;59382;43.852;25.952;2023-03-01T10:30:15;102185.31;;;8.11;70.35
71559;BME280;59382;43.852;25.952;2023-03-01T10:32:43;102184.31;;;8.12;70.14
71559;BME280;59382;43.852;25.952;2023-03-01T10:35:35;102188.38;;;8.16;70.34
71559;BME280;59382;43.852;25.952;2023-03-01T10:38:09;102167.13;;;8.05;70.10
71559;BME280;59382;43.852;25.952;2023-03-01T10:40:36;102178.47;;;8.17;70.27
71559;BME280;59382;43.852;25.952;2023-03-01T10:43:14;102164.50;;;8.13;70.38
71559;BME280;59382;43.852;25.952;2023-03-01T10:45:40;102179.97;;;8.19;70.35
71559;BME280;59382;43.852;25.952;2023-03-01T10:48:22;102178.16;;;8.20;70.27
71559;BME280;59382;43.852;25.952;2023-03-01T10:51:04;102155.41;;;8.14;70.17
71559;BME280;59382;43.852;25.952;2023-03-01T10:53:48;102164.91;;;8.26;70.17
71559;BME280;59382;43.852;25.952;2023-03-01T10:56:17;102167.28;;;8.29;70.01
71559;BME280;59382;43.852;25.952;2023-03-01T10:59:05;102138.34;;;8.23;69.87
71559;BME280;59382;43.852;25.952;2023-03-01T11:01:34;102144.78;;;8.30;69.76
71559;BME280;59382;43.852;25.952;2023-03-01T11:06:37;102138.22;;;8.41;69.82
71559;BME280;59382;43.852;25.952;2023-03-01T11:09:22;102154.22;;;8.42;69.63
71559;BME280;59382;43.852;25.952;2023-03-01T11:11:53;102133.38;;;8.36;69.62
71559;BME280;59382;43.852;25.952;2023-03-01T11:14:22;102123.09;;;8.32;69.44
71559;BME280;59382;43.852;25.952;2023-03-01T11:16:58;102129.03;;;8.43;69.74
71559;BME280;59382;43.852;25.952;2023-03-01T11:19:25;102139.13;;;8.49;69.28
71559;BME280;59382;43.852;25.952;2023-03-01T11:21:55;102123.47;;;8.45;68.98
71559;BME280;59382;43.852;25.952;2023-03-01T11:24:33;102111.81;;;8.28;69.00
71559;BME280;59382;43.852;25.952;2023-03-01T11:27:02;102072.72;;;8.08;69.25
71559;BME280;59382;43.852;25.952;2023-03-01T11:29:44;102101.84;;;8.21;69.22
71559;BME280;59382;43.852;25.952;2023-03-01T11:32:13;102114.72;;;8.35;69.33
71559;BME280;59382;43.852;25.952;2023-03-01T11:37:19;102099.41;;;8.35;68.75
71559;BME280;59382;43.852;25.952;2023-03-01T11:40:11;102113.19;;;8.40;68.96
71559;BME280;59382;43.852;25.952;2023-03-01T11:43:02;102089.28;;;8.29;68.98
71559;BME280;59382;43.852;25.952;2023-03-01T11:50:59;102073.00;;;8.31;68.84
71559;BME280;59382;43.852;25.952;2023-03-01T11:53:32;102102.78;;;8.45;68.98
71559;BME280;59382;43.852;25.952;2023-03-01T12:02:16;102076.75;;;8.54;68.90
71559;BME280;59382;43.852;25.952;2023-03-01T12:07:49;102063.47;;;8.52;68.51
71559;BME280;59382;43.852;25.952;2023-03-01T12:10:19;102073.91;;;8.55;68.95
71559;BME280;59382;43.852;25.952;2023-03-01T12:16:02;102042.59;;;8.54;68.32
71559;BME280;59382;43.852;25.952;2023-03-01T12:32:12;102050.69;;;8.54;68.50
71559;BME280;59382;43.852;25.952;2023-03-01T12:37:54;102045.31;;;8.46;68.62
71559;BME280;59382;43.852;25.952;2023-03-01T12:40:33;102049.66;;;8.39;68.83
71559;BME280;59382;43.852;25.952;2023-03-01T12:49:13;102053.00;;;8.33;68.81
71559;BME280;59382;43.852;25.952;2023-03-01T12:54:45;102043.28;;;8.40;68.89
71559;BME280;59382;43.852;25.952;2023-03-01T12:57:31;102043.44;;;8.47;68.94
71559;BME280;59382;43.852;25.952;2023-03-01T13:00:31;102039.56;;;8.41;68.90
71559;BME280;59382;43.852;25.952;2023-03-01T13:03:20;102048.00;;;8.46;69.04
71559;BME280;59382;43.852;25.952;2023-03-01T13:06:08;102045.63;;;8.51;68.89
71559;BME280;59382;43.852;25.952;2023-03-01T13:11:34;102046.34;;;8.61;68.84
71559;BME280;59382;43.852;25.952;2023-03-01T13:16:58;102040.28;;;8.67;68.62
71559;BME280;59382;43.852;25.952;2023-03-01T13:19:27;102024.16;;;8.67;68.71
71559;BME280;59382;43.852;25.952;2023-03-01T13:21:58;102027.00;;;8.66;68.72
71559;BME280;59382;43.852;25.952;2023-03-01T13:24:25;102021.63;;;8.66;68.65
71559;BME280;59382;43.852;25.952;2023-03-01T13:29:53;102033.91;;;8.76;68.81
71559;BME280;59382;43.852;25.952;2023-03-01T13:32:27;102031.53;;;8.81;68.65
71559;BME280;59382;43.852;25.952;2023-03-01T13:37:44;102003.97;;;8.79;68.27
71559;BME280;59382;43.852;25.952;2023-03-01T13:42:51;102020.44;;;8.84;68.11
71559;BME280;59382;43.852;25.952;2023-03-01T13:45:21;102023.28;;;8.83;68.12
71559;BME280;59382;43.852;25.952;2023-03-01T13:47:52;102027.84;;;8.82;68.01
71559;BME280;59382;43.852;25.952;2023-03-01T13:50:38;102035.25;;;8.80;68.12
71559;BME280;59382;43.852;25.952;2023-03-01T13:53:13;102009.00;;;8.66;68.03
71559;BME280;59382;43.852;25.952;2023-03-01T13:55:46;101996.53;;;8.57;67.82
71559;BME280;59382;43.852;25.952;2023-03-01T13:58:23;102032.19;;;8.75;68.09
71559;BME280;59382;43.852;25.952;2023-03-01T14:00:59;102021.78;;;8.72;68.17
71559;BME280;59382;43.852;25.952;2023-03-01T14:03:26;102021.13;;;8.70;68.22
71559;BME280;59382;43.852;25.952;2023-03-01T14:05:58;102023.13;;;8.76;68.28
71559;BME280;59382;43.852;25.952;2023-03-01T14:08:28;102007.31;;;8.73;67.86
71559;BME280;59382;43.852;25.952;2023-03-01T14:19:31;102001.94;;;8.73;67.93
71559;BME280;59382;43.852;25.952;2023-03-01T14:22:21;102017.75;;;8.84;67.93
71559;BME280;59382;43.852;25.952;2023-03-01T14:24:52;102006.81;;;8.78;67.83
71559;BME280;59382;43.852;25.952;2023-03-01T14:27:19;102021.75;;;8.88;67.83
71559;BME280;59382;43.852;25.952;2023-03-01T14:29:54;102008.69;;;8.85;67.85
71559;BME280;59382;43.852;25.952;2023-03-01T14:32:22;102016.75;;;8.85;67.83
71559;BME280;59382;43.852;25.952;2023-03-01T14:34:50;101994.03;;;8.64;67.68
71559;BME280;59382;43.852;25.952;2023-03-01T14:39:44;102028.19;;;8.79;67.86
71559;BME280;59382;43.852;25.952;2023-03-01T14:42:12;102020.13;;;8.79;68.10
71559;BME280;59382;43.852;25.952;2023-03-01T14:44:42;102005.81;;;8.79;67.97